createdAt,value
2023-02-08T00:00:02.956Z,-3.19
2023-02-08T00:02:37.259Z,-3.12
2023-02-08T00:05:07.090Z,-2.20
2023-02-08T00:07:39.212Z,-2.57
2023-02-08T00:10:10.670Z,-2.39
2023-02-08T00:12:41.098Z,-3.20
2023-02-08T00:15:11.724Z,-2.87
2023-02-08T00:17:41.332Z,-3.03
2023-02-08T00:20:12.565Z,-3.32
2023-02-08T00:22:44.677Z,-3.36
2023-02-08T00:25:14.634Z,-3.32
2023-02-08T00:27:44.418Z,-2.88
2023-02-08T00:30:15.092Z,-3.08
2023-02-08T00:32:44.651Z,-2.80
2023-02-08T00:35:14.765Z,-3.39
2023-02-08T00:37:46.974Z,-3.76
2023-02-08T00:40:16.617Z,-3.10
2023-02-08T00:42:46.189Z,-3.46
2023-02-08T00:45:15.804Z,-3.63
2023-02-08T00:47:45.374Z,-3.51
2023-02-08T00:50:15.133Z,-2.99
2023-02-08T00:52:47.337Z,-3.85
2023-02-08T00:55:17.035Z,-3.94
2023-02-08T00:57:46.581Z,-3.78
2023-02-08T01:00:17.045Z,-3.15
2023-02-08T01:02:46.612Z,-3.32
2023-02-08T01:05:16.181Z,-4.23
2023-02-08T01:07:48.347Z,-4.33
2023-02-08T01:10:18.004Z,-4.29
2023-02-08T01:12:47.583Z,-4.45
2023-02-08T01:15:17.212Z,-4.66
2023-02-08T01:17:46.763Z,-4.66
2023-02-08T01:20:17.796Z,-4.48
2023-02-08T01:22:49.967Z,-4.03
2023-02-08T01:25:19.548Z,-4.09
2023-02-08T01:27:49.166Z,-3.62
2023-02-08T01:30:19.040Z,-4.47
2023-02-08T01:32:48.663Z,-4.33
2023-02-08T01:35:18.745Z,-4.16
2023-02-08T01:37:53.274Z,-3.50
2023-02-08T01:40:22.905Z,-4.49
2023-02-08T01:42:53.755Z,-3.87
2023-02-08T01:45:29.905Z,-3.50
2023-02-08T01:48:06.586Z,-3.50
2023-02-08T01:50:43.183Z,-3.70
2023-02-08T01:53:15.634Z,-3.74
2023-02-08T01:55:49.856Z,-4.34
2023-02-08T01:58:21.757Z,-4.51
2023-02-08T02:00:51.706Z,-4.14
2023-02-08T02:03:22.192Z,-4.59
2023-02-08T02:05:57.222Z,-4.84
2023-02-08T02:08:29.922Z,-4.86
2023-02-08T02:10:59.532Z,-4.86
2023-02-08T02:13:31.182Z,-4.16
2023-02-08T02:16:00.866Z,-4.35
2023-02-08T02:18:33.343Z,-4.83
2023-02-08T02:21:17.511Z,-4.86
2023-02-08T02:24:27.972Z,-5.23
2023-02-08T02:27:25.571Z,-4.83
2023-02-08T02:30:17.036Z,-4.56
2023-02-08T02:33:03.501Z,-4.60
2023-02-08T02:35:40.319Z,-4.88
2023-02-08T02:38:16.410Z,-4.93
2023-02-08T02:41:01.063Z,-4.75
2023-02-08T02:43:44.861Z,-4.82
2023-02-08T02:46:25.505Z,-4.84
2023-02-08T02:49:05.011Z,-4.79
2023-02-08T02:51:41.368Z,-4.59
2023-02-08T02:54:17.190Z,-4.91
2023-02-08T02:56:50.291Z,-4.83
2023-02-08T02:59:20.857Z,-4.78
2023-02-08T03:01:50.603Z,-4.91
2023-02-08T03:04:50.784Z,-5.25
2023-02-08T03:07:31.053Z,-4.94
2023-02-08T03:10:12.658Z,-5.01
2023-02-08T03:12:56.175Z,-5.11
2023-02-08T03:15:33.012Z,-5.19
2023-02-08T03:18:15.757Z,-5.35
2023-02-08T03:20:53.382Z,-5.40
2023-02-08T03:23:31.696Z,-5.37
2023-02-08T03:26:08.203Z,-5.45
2023-02-08T03:28:43.534Z,-5.16
2023-02-08T03:31:22.022Z,-5.89
2023-02-08T03:33:56.433Z,-6.16
2023-02-08T03:36:31.481Z,-6.29
2023-02-08T03:39:09.477Z,-6.24
2023-02-08T03:41:45.697Z,-6.25
2023-02-08T03:44:20.840Z,-6.23
2023-02-08T03:46:54.798Z,-6.13
2023-02-08T03:49:28.724Z,-5.92
2023-02-08T03:52:01.129Z,-5.90
2023-02-08T03:54:37.797Z,-6.52
2023-02-08T03:57:13.073Z,-6.34
2023-02-08T03:59:44.762Z,-6.46
2023-02-08T04:02:19.624Z,-6.11
2023-02-08T04:04:52.420Z,-5.88
2023-02-08T04:07:22.606Z,-6.02
2023-02-08T04:09:54.870Z,-6.10
2023-02-08T04:12:24.463Z,-5.93
2023-02-08T04:14:54.523Z,-5.93
2023-02-08T04:17:24.375Z,-5.76
2023-02-08T04:19:53.904Z,-5.70
2023-02-08T04:22:23.423Z,-5.41
2023-02-08T04:24:55.534Z,-5.29
2023-02-08T04:27:25.085Z,-5.36
2023-02-08T04:29:54.834Z,-5.46
2023-02-08T04:32:26.748Z,-5.43
2023-02-08T04:34:56.329Z,-5.42
2023-02-08T04:37:25.941Z,-5.49
2023-02-08T04:39:58.167Z,-5.76
2023-02-08T04:42:27.772Z,-5.67
2023-02-08T04:44:57.346Z,-5.36
2023-02-08T04:47:26.944Z,-5.41
2023-02-08T04:49:56.521Z,-5.78
2023-02-08T04:52:26.080Z,-5.44
2023-02-08T04:54:58.525Z,-5.67
2023-02-08T04:57:28.148Z,-5.86
2023-02-08T05:00:00.051Z,-6.05
2023-02-08T05:02:30.211Z,-5.75
2023-02-08T05:04:59.873Z,-5.87
2023-02-08T05:07:29.586Z,-5.75
2023-02-08T05:10:01.747Z,-6.09
2023-02-08T05:12:31.296Z,-5.81
2023-02-08T05:15:00.970Z,-6.01
2023-02-08T05:17:30.770Z,-6.04
2023-02-08T05:20:00.816Z,-6.15
2023-02-08T05:22:30.364Z,-6.25
2023-02-08T05:25:02.502Z,-6.12
2023-02-08T05:27:32.185Z,-6.20
2023-02-08T05:30:01.746Z,-6.22
2023-02-08T05:32:31.573Z,-5.58
2023-02-08T05:35:01.164Z,-5.41
2023-02-08T05:37:30.693Z,-5.70
2023-02-08T05:40:03.309Z,-5.79
2023-02-08T05:42:32.905Z,-6.04
2023-02-08T05:45:02.445Z,-6.06
2023-02-08T05:47:31.990Z,-6.15
2023-02-08T05:50:01.549Z,-6.32
2023-02-08T05:52:31.157Z,-6.07
2023-02-08T05:55:03.351Z,-5.75
2023-02-08T05:57:35.636Z,-5.81
2023-02-08T06:00:06.903Z,-5.50
2023-02-08T06:02:45.738Z,-5.67
2023-02-08T06:05:15.505Z,-5.64
2023-02-08T06:07:45.110Z,-5.61
2023-02-08T06:10:17.442Z,-5.45
2023-02-08T06:12:47.098Z,-5.61
2023-02-08T06:15:16.806Z,-5.16
2023-02-08T06:17:46.434Z,-5.84
2023-02-08T06:20:18.811Z,-5.83
2023-02-08T06:22:48.389Z,-5.90
2023-02-08T06:25:21.002Z,-5.61
2023-02-08T06:27:51.019Z,-5.07
2023-02-08T06:30:20.745Z,-5.57
2023-02-08T06:32:50.344Z,-5.65
2023-02-08T06:35:20.331Z,-5.68
2023-02-08T06:37:49.911Z,-5.80
2023-02-08T06:40:22.278Z,-5.66
2023-02-08T06:42:52.108Z,-5.66
2023-02-08T06:45:21.732Z,-6.02
2023-02-08T06:47:51.346Z,-6.16
2023-02-08T06:50:23.784Z,-6.04
2023-02-08T06:52:53.819Z,-6.18
2023-02-08T06:55:26.219Z,-6.11
2023-02-08T06:57:56.313Z,-5.99
2023-02-08T07:00:26.392Z,-6.06
2023-02-08T07:02:55.929Z,-6.00
2023-02-08T07:05:25.485Z,-5.92
2023-02-08T07:07:55.014Z,-5.89
2023-02-08T07:10:27.122Z,-5.85
2023-02-08T07:12:56.873Z,-5.84
2023-02-08T07:15:26.453Z,-5.76
2023-02-08T07:17:56.002Z,-5.65
2023-02-08T07:20:25.581Z,-5.67
2023-02-08T07:22:55.511Z,-5.54
2023-02-08T07:25:27.691Z,-5.23
2023-02-08T07:27:57.297Z,-5.13
2023-02-08T07:30:26.846Z,-5.45
2023-02-08T07:32:56.413Z,-5.25
2023-02-08T07:35:25.969Z,-5.08
2023-02-08T07:37:55.601Z,-5.14
2023-02-08T07:40:27.773Z,-5.01
2023-02-08T07:42:57.806Z,-5.08
2023-02-08T07:45:40.601Z,-4.79
2023-02-08T07:48:10.286Z,-4.81
2023-02-08T07:50:40.053Z,-4.52
2023-02-08T07:53:09.831Z,-4.36
2023-02-08T07:55:41.955Z,-4.21
2023-02-08T07:58:11.498Z,-3.99
2023-02-08T08:00:41.358Z,-4.47
2023-02-08T08:03:11.167Z,-4.33
2023-02-08T08:05:43.260Z,-4.14
2023-02-08T08:08:14.089Z,-3.94
2023-02-08T08:10:46.440Z,-4.05
2023-02-08T08:13:16.430Z,-3.92
2023-02-08T08:15:46.494Z,-4.33
2023-02-08T08:18:16.101Z,-4.49
2023-02-08T08:20:47.997Z,-4.00
2023-02-08T08:23:19.624Z,-4.07
2023-02-08T08:25:51.764Z,-4.12
2023-02-08T08:28:21.489Z,-3.58
2023-02-08T08:30:51.573Z,-3.97
2023-02-08T08:33:21.292Z,-3.78
2023-02-08T08:35:51.014Z,-3.67
2023-02-08T08:38:20.588Z,-3.72
2023-02-08T08:40:52.812Z,-3.54
2023-02-08T08:43:22.375Z,-3.68
2023-02-08T08:45:53.063Z,-3.56
2023-02-08T08:48:22.811Z,-3.50
2023-02-08T08:50:52.376Z,-3.34
2023-02-08T08:53:22.169Z,-2.75
2023-02-08T08:55:54.278Z,-3.39
2023-02-08T08:58:23.886Z,-2.81
2023-02-08T09:00:54.094Z,-2.71
2023-02-08T09:03:23.695Z,-2.77
2023-02-08T09:05:53.758Z,-2.90
2023-02-08T09:08:23.347Z,-2.89
2023-02-08T09:10:55.483Z,-2.58
2023-02-08T09:13:25.096Z,-2.88
2023-02-08T09:15:54.713Z,-2.43
2023-02-08T09:18:24.298Z,-2.72
2023-02-08T09:20:53.838Z,-2.39
2023-02-08T09:23:23.423Z,-2.29
2023-02-08T09:25:55.589Z,-2.11
2023-02-08T09:28:25.191Z,-1.87
2023-02-08T09:30:54.756Z,-1.94
2023-02-08T09:33:24.518Z,-1.69
2023-02-08T09:35:54.070Z,-1.41
2023-02-08T09:38:23.692Z,-1.36
2023-02-08T09:41:06.204Z,-1.43
2023-02-08T09:43:45.362Z,-1.65
2023-02-08T09:46:19.473Z,-1.86
2023-02-08T09:48:53.004Z,-2.09
2023-02-08T09:51:29.075Z,-1.53
2023-02-08T09:54:02.697Z,-1.18
2023-02-08T09:56:40.380Z,-1.05
2023-02-08T09:59:17.931Z,-0.78
2023-02-08T10:01:51.063Z,-0.66
2023-02-08T10:04:28.730Z,-1.21
2023-02-08T10:06:58.427Z,-1.29
2023-02-08T10:09:29.931Z,-0.94
2023-02-08T10:12:10.793Z,-1.35
2023-02-08T10:14:56.759Z,-1.22
2023-02-08T10:17:57.081Z,-0.94
2023-02-08T10:20:37.250Z,-1.16
2023-02-08T10:23:22.529Z,-1.28
2023-02-08T10:26:16.339Z,-0.88
2023-02-08T10:29:04.718Z,-1.13
2023-02-08T10:31:47.495Z,-0.97
2023-02-08T10:34:27.686Z,-0.78
2023-02-08T10:37:01.185Z,-0.74
2023-02-08T10:39:35.568Z,-0.54
2023-02-08T10:42:05.693Z,-0.49
2023-02-08T10:44:51.872Z,-0.43
2023-02-08T10:47:35.848Z,-0.30
2023-02-08T10:50:10.514Z,0.17
2023-02-08T10:52:40.133Z,-0.28
2023-02-08T10:55:15.891Z,0.08
2023-02-08T10:57:47.158Z,-0.07
2023-02-08T11:00:26.524Z,0.01
2023-02-08T11:03:00.794Z,0.20
2023-02-08T11:05:38.362Z,-0.01
2023-02-08T11:08:09.744Z,-0.03
2023-02-08T11:10:40.738Z,0.52
2023-02-08T11:13:19.874Z,0.69
2023-02-08T11:15:55.280Z,0.60
2023-02-08T11:18:27.751Z,0.60
2023-02-08T11:21:00.158Z,0.68
2023-02-08T11:23:32.768Z,0.86
2023-02-08T11:26:19.955Z,0.78
2023-02-08T11:29:03.232Z,0.53
2023-02-08T11:31:36.256Z,1.11
2023-02-08T11:34:09.250Z,0.98
2023-02-08T11:36:40.409Z,1.08
2023-02-08T11:39:21.050Z,0.95
2023-02-08T11:41:53.394Z,1.14
2023-02-08T11:44:28.164Z,1.14
2023-02-08T11:47:03.915Z,1.56
2023-02-08T11:49:38.875Z,1.52
2023-02-08T11:52:10.601Z,1.70
2023-02-08T11:54:43.290Z,1.05
2023-02-08T11:57:19.307Z,1.41
2023-02-08T11:59:49.572Z,1.46
2023-02-08T12:02:46.536Z,1.35
2023-02-08T12:05:20.434Z,1.37
2023-02-08T12:08:06.013Z,1.34
2023-02-08T12:11:17.569Z,1.51
2023-02-08T12:14:34.293Z,1.45
2023-02-08T12:17:28.520Z,1.50
2023-02-08T12:20:27.432Z,1.47
2023-02-08T12:23:07.431Z,1.47
2023-02-08T12:25:47.730Z,1.53
2023-02-08T12:28:28.304Z,1.49
2023-02-08T12:31:09.101Z,1.18
2023-02-08T12:33:53.481Z,1.36
2023-02-08T12:36:34.427Z,1.73
2023-02-08T12:39:37.557Z,1.79
2023-02-08T12:42:27.167Z,1.67
2023-02-08T12:45:24.932Z,1.49
2023-02-08T12:48:12.895Z,1.00
2023-02-08T12:50:52.101Z,1.15
2023-02-08T12:53:31.393Z,1.43
2023-02-08T12:56:04.765Z,1.36
2023-02-08T12:58:41.229Z,1.12
2023-02-08T13:01:16.865Z,1.18
2023-02-08T13:03:48.956Z,1.35
2023-02-08T13:06:21.388Z,1.36
2023-02-08T13:08:56.857Z,1.37
2023-02-08T13:11:34.744Z,1.78
2023-02-08T13:14:07.419Z,1.36
2023-02-08T13:16:43.649Z,1.30
2023-02-08T13:19:29.204Z,1.51
2023-02-08T13:22:00.365Z,2.14
2023-02-08T13:24:37.981Z,1.99
2023-02-08T13:27:08.726Z,1.29
2023-02-08T13:29:40.477Z,1.19
2023-02-08T13:32:16.972Z,1.32
2023-02-08T13:34:51.258Z,1.27
2023-02-08T13:37:26.700Z,1.10
2023-02-08T13:40:08.219Z,1.18
2023-02-08T13:42:42.811Z,1.09
2023-02-08T13:45:25.340Z,0.91
2023-02-08T13:48:01.099Z,1.14
2023-02-08T13:50:52.649Z,1.39
2023-02-08T13:54:08.995Z,0.98
2023-02-08T13:56:44.200Z,1.30
2023-02-08T13:59:36.493Z,1.39
2023-02-08T14:02:23.214Z,1.04
2023-02-08T14:04:54.751Z,0.89
2023-02-08T14:07:33.510Z,1.13
2023-02-08T14:10:09.493Z,1.14
2023-02-08T14:12:48.910Z,1.02
2023-02-08T14:15:39.644Z,1.03
2023-02-08T14:18:26.445Z,0.86
2023-02-08T14:21:05.567Z,0.86
2023-02-08T14:23:40.706Z,1.10
2023-02-08T14:26:24.097Z,0.59
2023-02-08T14:29:01.574Z,0.62
2023-02-08T14:31:46.807Z,0.91
2023-02-08T14:34:26.407Z,0.75
2023-02-08T14:37:05.176Z,0.81
2023-02-08T14:39:37.491Z,0.64
2023-02-08T14:42:09.037Z,0.53
2023-02-08T14:45:04.301Z,0.23
2023-02-08T14:48:04.506Z,0.32
2023-02-08T14:50:41.712Z,-0.10
2023-02-08T14:53:26.991Z,0.00
2023-02-08T14:56:01.745Z,-0.03
2023-02-08T14:58:35.104Z,-0.07
2023-02-08T15:01:14.967Z,-0.22
2023-02-08T15:03:45.007Z,-0.20
2023-02-08T15:07:05.424Z,-0.15
2023-02-08T15:09:40.117Z,-0.36
2023-02-08T15:12:16.914Z,-0.43
2023-02-08T15:14:47.112Z,-0.27
2023-02-08T15:17:35.135Z,-0.51
2023-02-08T15:20:08.636Z,-0.40
2023-02-08T15:22:40.061Z,-0.38
2023-02-08T15:25:27.261Z,-0.28
2023-02-08T15:27:58.826Z,-0.17
2023-02-08T15:30:32.431Z,-0.42
2023-02-08T15:33:06.659Z,-0.54
2023-02-08T15:35:37.858Z,-0.66
2023-02-08T15:38:08.169Z,-0.58
2023-02-08T15:40:38.219Z,-0.55
2023-02-08T15:43:15.739Z,-0.58
2023-02-08T15:45:45.316Z,-0.57
2023-02-08T15:48:17.589Z,-0.60
2023-02-08T15:50:47.215Z,-0.77
2023-02-08T15:53:18.572Z,-0.81
2023-02-08T15:55:51.647Z,-0.87
2023-02-08T15:58:28.867Z,-0.75
2023-02-08T16:01:01.108Z,-0.90
2023-02-08T16:03:34.971Z,-0.89
2023-02-08T16:06:07.751Z,-1.01
2023-02-08T16:08:41.354Z,-0.97
2023-02-08T16:11:15.268Z,-0.97
2023-02-08T16:13:51.572Z,-1.05
2023-02-08T16:16:23.428Z,-0.95
2023-02-08T16:19:01.055Z,-1.11
2023-02-08T16:21:35.498Z,-1.09
2023-02-08T16:24:09.832Z,-1.00
2023-02-08T16:26:44.084Z,-0.82
2023-02-08T16:29:21.825Z,-1.12
2023-02-08T16:32:01.047Z,-1.06
2023-02-08T16:34:35.754Z,-1.15
2023-02-08T16:37:07.251Z,-1.27
2023-02-08T16:39:46.803Z,-1.27
2023-02-08T16:42:35.941Z,-1.42
2023-02-08T16:45:17.000Z,-1.40
2023-02-08T16:47:49.095Z,-1.40
2023-02-08T16:50:23.494Z,-1.48
2023-02-08T16:52:56.055Z,-1.46
2023-02-08T16:55:28.808Z,-1.67
2023-02-08T16:58:00.569Z,-1.56
2023-02-08T17:00:32.783Z,-1.60
2023-02-08T17:03:02.817Z,-1.70
2023-02-08T17:05:39.250Z,-1.78
2023-02-08T17:08:11.649Z,-1.85
2023-02-08T17:10:42.049Z,-1.86
2023-02-08T17:13:20.361Z,-1.87
2023-02-08T17:15:53.275Z,-1.99
2023-02-08T17:18:23.657Z,-2.00
2023-02-08T17:20:59.884Z,-1.98
2023-02-08T17:23:29.676Z,-2.01
2023-02-08T17:25:59.800Z,-2.15
2023-02-08T17:28:31.593Z,-2.19
2023-02-08T17:31:01.776Z,-2.25
2023-02-08T17:33:33.355Z,-2.26
2023-02-08T17:36:05.520Z,-2.28
2023-02-08T17:38:39.036Z,-2.19
2023-02-08T17:41:08.800Z,-1.98
2023-02-08T17:43:38.619Z,-1.90
2023-02-08T17:46:12.393Z,-1.81
2023-02-08T17:48:42.290Z,-1.67
2023-02-08T17:51:17.349Z,-1.57
2023-02-08T17:53:47.655Z,-1.53
2023-02-08T17:56:20.484Z,-1.83
2023-02-08T17:58:53.760Z,-1.75
2023-02-08T18:01:26.481Z,-1.68
2023-02-08T18:03:57.372Z,-1.75
2023-02-08T18:06:29.747Z,-1.94
2023-02-08T18:08:59.562Z,-1.63
2023-02-08T18:11:29.174Z,-1.87
2023-02-08T18:13:58.790Z,-1.91
2023-02-08T18:16:30.928Z,-1.86
2023-02-08T18:19:01.921Z,-1.50
2023-02-08T18:21:34.505Z,-1.38
2023-02-08T18:24:04.974Z,-1.41
2023-02-08T18:26:36.032Z,-1.80
2023-02-08T18:29:06.280Z,-1.63
2023-02-08T18:31:35.911Z,-1.54
2023-02-08T18:34:06.452Z,-1.96
2023-02-08T18:36:38.647Z,-2.22
2023-02-08T18:39:08.209Z,-1.91
2023-02-08T18:41:37.755Z,-2.19
2023-02-08T18:44:26.036Z,-2.03
2023-02-08T18:46:55.664Z,-1.70
2023-02-08T18:49:25.967Z,-1.92
2023-02-08T18:51:58.115Z,-1.89
2023-02-08T18:54:27.681Z,-1.81
2023-02-08T18:56:57.500Z,-2.21
2023-02-08T18:59:27.094Z,-2.22
2023-02-08T19:01:56.744Z,-1.99
2023-02-08T19:04:26.515Z,-2.02
2023-02-08T19:06:58.716Z,-2.06
2023-02-08T19:09:28.266Z,-2.24
2023-02-08T19:11:57.819Z,-2.04
2023-02-08T19:14:27.350Z,-1.97
2023-02-08T19:16:56.963Z,-1.84
2023-02-08T19:19:26.610Z,-2.23
2023-02-08T19:21:58.784Z,-2.19
2023-02-08T19:24:28.375Z,-1.83
2023-02-08T19:26:57.940Z,-1.77
2023-02-08T19:29:27.528Z,-1.93
2023-02-08T19:31:58.325Z,-1.76
2023-02-08T19:34:28.639Z,-1.78
2023-02-08T19:37:00.799Z,-1.50
2023-02-08T19:39:30.740Z,-1.64
2023-02-08T19:42:00.467Z,-1.55
2023-02-08T19:44:30.845Z,-1.76
2023-02-08T19:47:01.573Z,-1.77
2023-02-08T19:49:31.320Z,-2.18
2023-02-08T19:52:03.606Z,-2.00
2023-02-08T19:54:33.213Z,-2.59
2023-02-08T19:57:03.066Z,-2.31
2023-02-08T19:59:35.303Z,-1.99
2023-02-08T20:02:06.348Z,-1.86
2023-02-08T20:04:36.018Z,-1.52
2023-02-08T20:07:08.933Z,-1.36
2023-02-08T20:09:38.818Z,-1.49
2023-02-08T20:12:09.303Z,-1.16
2023-02-08T20:14:38.880Z,-1.28
2023-02-08T20:17:08.765Z,-0.91
2023-02-08T20:19:39.245Z,-1.06
2023-02-08T20:22:11.416Z,-0.94
2023-02-08T20:24:41.103Z,-1.28
2023-02-08T20:27:10.640Z,-1.25
2023-02-08T20:29:40.164Z,-0.92
2023-02-08T20:32:09.867Z,-1.56
2023-02-08T20:34:47.331Z,-1.50
2023-02-08T20:37:23.041Z,-1.82
2023-02-08T20:39:52.649Z,-1.91
2023-02-08T20:42:22.617Z,-1.96
2023-02-08T20:44:53.508Z,-2.24
2023-02-08T20:47:23.333Z,-1.81
2023-02-08T20:49:53.692Z,-1.51
2023-02-08T20:52:26.056Z,-1.03
2023-02-08T20:54:55.693Z,-1.50
2023-02-08T20:57:25.364Z,-1.07
2023-02-08T20:59:55.700Z,-0.82
2023-02-08T21:02:26.279Z,-0.77
2023-02-08T21:04:55.899Z,-0.47
2023-02-08T21:07:28.298Z,-0.49
2023-02-08T21:09:57.952Z,-0.50
2023-02-08T21:12:32.512Z,-0.50
2023-02-08T21:15:03.048Z,-0.29
2023-02-08T21:17:32.966Z,-0.47
2023-02-08T21:20:02.697Z,-0.39
2023-02-08T21:22:35.251Z,-0.34
2023-02-08T21:25:04.928Z,-0.51
2023-02-08T21:27:34.684Z,-0.80
2023-02-08T21:30:04.610Z,-0.52
2023-02-08T21:32:34.393Z,-0.39
2023-02-08T21:35:04.125Z,-0.55
2023-02-08T21:37:38.415Z,-0.49
2023-02-08T21:40:09.328Z,-0.51
2023-02-08T21:42:38.959Z,-0.23
2023-02-08T21:45:09.958Z,-0.07
2023-02-08T21:47:39.933Z,-0.10
2023-02-08T21:50:22.589Z,-0.11
2023-02-08T21:53:09.766Z,-0.29
2023-02-08T21:55:39.436Z,-0.03
2023-02-08T21:58:09.000Z,-0.08
2023-02-08T22:00:38.573Z,-0.28
2023-02-08T22:03:08.558Z,-0.29
2023-02-08T22:05:50.704Z,-0.30
2023-02-08T22:08:22.854Z,-0.02
2023-02-08T22:10:58.445Z,-0.30
2023-02-08T22:13:28.361Z,-0.22
2023-02-08T22:15:58.889Z,0.06
2023-02-08T22:18:29.053Z,-0.22
2023-02-08T22:20:58.626Z,-0.16
2023-02-08T22:23:30.763Z,-0.28
2023-02-08T22:26:00.388Z,-0.23
2023-02-08T22:28:30.031Z,-0.17
2023-02-08T22:31:01.862Z,-0.42
2023-02-08T22:33:31.814Z,-0.39
2023-02-08T22:36:01.458Z,-0.51
2023-02-08T22:38:33.932Z,-0.62
2023-02-08T22:41:03.497Z,-0.59
2023-02-08T22:43:33.063Z,-0.43
2023-02-08T22:46:03.642Z,-0.42
2023-02-08T22:48:33.683Z,-0.51
2023-02-08T22:51:07.640Z,-0.62
2023-02-08T22:53:39.837Z,-0.51
2023-02-08T22:56:09.955Z,-0.86
2023-02-08T22:58:39.557Z,-1.01
2023-02-08T23:01:12.416Z,-0.67
2023-02-08T23:03:42.137Z,-0.77
2023-02-08T23:06:15.188Z,-0.56
2023-02-08T23:08:48.140Z,-0.49
2023-02-08T23:11:18.550Z,-0.75
2023-02-08T23:13:48.284Z,-0.72
2023-02-08T23:16:20.204Z,-0.71
2023-02-08T23:18:50.457Z,-0.63
2023-02-08T23:21:22.371Z,-0.24
2023-02-08T23:23:54.556Z,-0.15
2023-02-08T23:26:24.834Z,-0.30
2023-02-08T23:28:55.544Z,-0.52
2023-02-08T23:31:25.462Z,-0.61
2023-02-08T23:33:55.073Z,-0.52
2023-02-08T23:36:25.809Z,0.14
2023-02-08T23:38:58.027Z,-0.50
2023-02-08T23:41:27.608Z,0.44
2023-02-08T23:43:57.129Z,0.58
2023-02-08T23:46:29.423Z,-0.67
2023-02-08T23:48:59.082Z,-0.37
2023-02-08T23:51:29.231Z,-1.11
2023-02-08T23:54:01.361Z,-0.46
2023-02-08T23:56:33.157Z,-0.47
2023-02-08T23:59:05.805Z,-0.77
